createdAt,value
2024-02-18T00:01:46.681Z,7.50
2024-02-18T00:04:15.162Z,7.50
2024-02-18T00:06:44.254Z,7.40
2024-02-18T00:09:12.746Z,7.40
2024-02-18T00:11:41.498Z,7.40
2024-02-18T00:14:11.424Z,7.50
2024-02-18T00:16:39.757Z,7.50
2024-02-18T00:19:08.921Z,7.50
2024-02-18T00:21:38.730Z,7.50
2024-02-18T00:24:08.073Z,7.50
2024-02-18T00:26:44.909Z,7.50
2024-02-18T00:29:24.555Z,7.50
2024-02-18T00:31:53.047Z,7.40
2024-02-18T00:34:23.977Z,7.40
2024-02-18T00:36:53.793Z,7.50
2024-02-18T00:39:22.379Z,7.50
2024-02-18T00:41:50.833Z,7.50
2024-02-18T00:44:20.700Z,7.50
2024-02-18T00:46:57.628Z,7.50
2024-02-18T00:49:35.130Z,7.60
2024-02-18T00:52:04.430Z,7.60
2024-02-18T00:54:33.033Z,7.50
2024-02-18T00:57:01.388Z,7.50
2024-02-18T00:59:29.738Z,7.50
2024-02-18T01:01:59.574Z,7.50
2024-02-18T01:04:28.117Z,7.60
2024-02-18T01:06:56.542Z,7.60
2024-02-18T01:09:25.203Z,7.50
2024-02-18T01:11:54.341Z,7.50
2024-02-18T01:14:23.002Z,7.50
2024-02-18T01:16:51.751Z,7.50
2024-02-18T01:19:22.790Z,7.50
2024-02-18T01:21:51.420Z,7.50
2024-02-18T01:24:19.872Z,7.60
2024-02-18T01:26:48.398Z,7.60
2024-02-18T01:29:16.786Z,7.60
2024-02-18T01:31:45.239Z,7.60
2024-02-18T01:34:13.828Z,7.60
2024-02-18T01:36:43.610Z,7.60
2024-02-18T01:39:12.024Z,7.60
2024-02-18T01:41:41.502Z,7.60
2024-02-18T01:44:09.765Z,7.60
2024-02-18T01:46:38.068Z,7.60
2024-02-18T01:49:06.686Z,7.50
2024-02-18T01:51:35.120Z,7.50
2024-02-18T01:54:05.124Z,7.50
2024-02-18T01:56:33.561Z,7.60
2024-02-18T01:59:01.952Z,7.60
2024-02-18T02:01:30.465Z,7.60
2024-02-18T02:03:59.274Z,7.50
2024-02-18T02:06:27.688Z,7.50
2024-02-18T02:08:56.160Z,7.60
2024-02-18T02:11:25.999Z,7.50
2024-02-18T02:13:54.488Z,7.50
2024-02-18T02:16:22.966Z,7.50
2024-02-18T02:18:51.679Z,7.50
2024-02-18T02:21:20.881Z,7.60
2024-02-18T02:23:50.274Z,7.60
2024-02-18T02:26:19.240Z,7.60
2024-02-18T02:28:51.589Z,7.60
2024-02-18T02:31:21.448Z,7.60
2024-02-18T02:33:50.001Z,7.60
2024-02-18T02:36:18.805Z,7.60
2024-02-18T02:38:47.454Z,7.70
2024-02-18T02:41:15.774Z,7.60
2024-02-18T02:43:44.135Z,7.60
2024-02-18T02:46:12.986Z,7.60
2024-02-18T02:48:42.759Z,7.50
2024-02-18T02:51:11.140Z,7.50
2024-02-18T02:53:39.511Z,7.50
2024-02-18T02:56:09.055Z,7.40
2024-02-18T02:58:37.419Z,7.30
2024-02-18T03:01:06.528Z,7.30
2024-02-18T03:03:35.099Z,7.20
2024-02-18T03:06:05.384Z,7.20
2024-02-18T03:08:33.957Z,7.20
2024-02-18T03:11:02.440Z,7.10
2024-02-18T03:13:34.095Z,7.00
2024-02-18T03:16:02.609Z,7.00
2024-02-18T03:18:31.178Z,7.00
2024-02-18T03:20:59.672Z,6.90
2024-02-18T03:23:29.430Z,6.90
2024-02-18T03:25:57.782Z,6.80
2024-02-18T03:28:26.809Z,6.80
2024-02-18T03:30:55.268Z,6.80
2024-02-18T03:33:24.549Z,6.70
2024-02-18T03:35:52.965Z,6.60
2024-02-18T03:38:21.294Z,6.50
2024-02-18T03:40:51.181Z,6.40
2024-02-18T03:43:19.624Z,6.30
2024-02-18T03:45:48.055Z,6.20
2024-02-18T03:48:16.942Z,6.00
2024-02-18T03:50:45.347Z,6.00
2024-02-18T03:53:13.790Z,5.80
2024-02-18T03:55:42.186Z,5.70
2024-02-18T03:58:14.687Z,5.60
2024-02-18T04:00:47.069Z,5.50
2024-02-18T04:03:15.662Z,5.50
2024-02-18T04:05:44.269Z,5.40
2024-02-18T04:08:12.602Z,5.40
2024-02-18T04:10:40.930Z,5.30
2024-02-18T04:13:09.593Z,5.20
2024-02-18T04:15:39.458Z,5.20
2024-02-18T04:18:08.013Z,5.10
2024-02-18T04:20:36.984Z,5.10
2024-02-18T04:23:05.921Z,5.00
2024-02-18T04:25:34.324Z,5.00
2024-02-18T04:28:02.935Z,5.00
2024-02-18T04:30:31.432Z,4.90
2024-02-18T04:33:01.311Z,4.90
2024-02-18T04:35:29.714Z,4.90
2024-02-18T04:37:58.031Z,4.90
2024-02-18T04:40:26.908Z,4.80
2024-02-18T04:42:55.298Z,4.80
2024-02-18T04:45:23.950Z,4.80
2024-02-18T04:47:52.687Z,4.70
2024-02-18T04:50:22.467Z,4.60
2024-02-18T04:52:50.970Z,4.60
2024-02-18T04:55:19.460Z,4.60
2024-02-18T04:57:47.881Z,4.50
2024-02-18T05:00:16.925Z,4.40
2024-02-18T05:02:46.607Z,4.30
2024-02-18T05:05:15.487Z,4.30
2024-02-18T05:07:45.291Z,4.30
2024-02-18T05:10:13.658Z,4.30
2024-02-18T05:12:42.087Z,4.20
2024-02-18T05:15:11.327Z,4.30
2024-02-18T05:17:40.461Z,4.30
2024-02-18T05:20:11.494Z,4.30
2024-02-18T05:22:41.726Z,4.30
2024-02-18T05:25:11.810Z,4.30
2024-02-18T05:27:40.230Z,4.30
2024-02-18T05:30:09.990Z,4.30
2024-02-18T05:32:38.450Z,4.30
2024-02-18T05:35:11.278Z,4.30
2024-02-18T05:37:40.409Z,4.30
2024-02-18T05:40:11.682Z,4.30
2024-02-18T05:42:40.297Z,4.30
2024-02-18T05:45:09.582Z,4.30
2024-02-18T05:47:37.960Z,4.30
2024-02-18T05:50:08.190Z,4.30
2024-02-18T05:52:36.584Z,4.20
2024-02-18T05:55:05.237Z,4.10
2024-02-18T05:57:34.975Z,4.10
2024-02-18T06:00:03.792Z,4.10
2024-02-18T06:02:32.537Z,4.10
2024-02-18T06:05:00.937Z,4.10
2024-02-18T06:07:29.555Z,4.10
2024-02-18T06:09:58.029Z,4.00
2024-02-18T06:12:26.451Z,4.00
2024-02-18T06:14:56.157Z,4.00
2024-02-18T06:17:24.626Z,4.00
2024-02-18T06:19:53.060Z,4.00
2024-02-18T06:22:21.499Z,4.00
2024-02-18T06:24:50.323Z,4.00
2024-02-18T06:27:18.752Z,4.00
2024-02-18T06:29:47.122Z,3.90
2024-02-18T06:32:19.142Z,3.90
2024-02-18T06:34:47.757Z,3.80
2024-02-18T06:37:17.105Z,3.80
2024-02-18T06:39:45.577Z,3.90
2024-02-18T06:42:14.019Z,3.90
2024-02-18T06:44:42.416Z,3.90
2024-02-18T06:47:10.818Z,4.00
2024-02-18T06:49:40.561Z,4.00
2024-02-18T06:52:09.176Z,4.10
2024-02-18T06:54:37.610Z,4.10
2024-02-18T06:57:06.349Z,4.10
2024-02-18T06:59:34.674Z,4.20
2024-02-18T07:02:03.643Z,4.20
2024-02-18T07:04:32.147Z,4.20
2024-02-18T07:07:02.058Z,4.20
2024-02-18T07:09:30.540Z,4.20
2024-02-18T07:11:58.955Z,4.20
2024-02-18T07:14:27.246Z,4.30
2024-02-18T07:16:55.605Z,4.30
2024-02-18T07:19:24.255Z,4.40
2024-02-18T07:21:53.068Z,4.50
2024-02-18T07:24:22.958Z,4.60
2024-02-18T07:26:51.400Z,4.60
2024-02-18T07:29:20.034Z,4.70
2024-02-18T07:31:48.543Z,4.70
2024-02-18T07:34:16.973Z,4.80
2024-02-18T07:36:48.032Z,4.80
2024-02-18T07:39:16.457Z,4.90
2024-02-18T07:41:47.241Z,4.90
2024-02-18T07:44:15.678Z,4.90
2024-02-18T07:46:44.003Z,5.00
2024-02-18T07:49:13.909Z,5.00
2024-02-18T07:51:42.245Z,5.10
2024-02-18T07:54:10.780Z,5.20
2024-02-18T07:56:46.538Z,5.30
2024-02-18T07:59:15.016Z,5.40
2024-02-18T08:01:44.270Z,5.50
2024-02-18T08:04:12.862Z,5.70
2024-02-18T08:06:42.367Z,5.80
2024-02-18T08:09:11.972Z,6.00
2024-02-18T08:11:40.429Z,6.10
2024-02-18T08:14:10.234Z,6.20
2024-02-18T08:16:38.594Z,6.40
2024-02-18T08:19:07.023Z,6.50
2024-02-18T08:21:35.933Z,6.60
2024-02-18T08:24:04.365Z,6.80
2024-02-18T08:26:32.854Z,6.80
2024-02-18T08:29:01.236Z,6.90
2024-02-18T08:31:30.970Z,7.00
2024-02-18T08:33:59.411Z,7.00
2024-02-18T08:36:27.831Z,7.10
2024-02-18T08:38:56.881Z,7.10
2024-02-18T08:41:26.982Z,7.20
2024-02-18T08:43:55.348Z,7.30
2024-02-18T08:46:24.229Z,7.30
2024-02-18T08:48:56.176Z,7.30
2024-02-18T08:51:24.668Z,7.30
2024-02-18T08:53:53.796Z,7.30
2024-02-18T08:56:22.202Z,7.40
2024-02-18T08:58:50.618Z,7.40
2024-02-18T09:01:21.456Z,7.40
2024-02-18T09:03:49.919Z,7.40
2024-02-18T09:06:19.831Z,7.50
2024-02-18T09:08:48.518Z,7.50
2024-02-18T09:11:17.077Z,7.60
2024-02-18T09:13:45.579Z,7.70
2024-02-18T09:16:14.075Z,7.80
2024-02-18T09:18:42.716Z,7.80
2024-02-18T09:21:11.113Z,7.90
2024-02-18T09:23:40.774Z,8.00
2024-02-18T09:26:11.532Z,8.00
2024-02-18T09:28:39.916Z,8.10
2024-02-18T09:31:09.937Z,8.20
2024-02-18T09:33:41.922Z,8.20
2024-02-18T09:36:10.321Z,8.30
2024-02-18T09:38:41.270Z,8.40
2024-02-18T09:41:12.961Z,8.40
2024-02-18T09:43:43.721Z,8.50
2024-02-18T09:46:12.186Z,8.50
2024-02-18T09:48:40.737Z,8.50
2024-02-18T09:51:09.453Z,8.60
2024-02-18T09:53:37.804Z,8.70
2024-02-18T09:56:08.764Z,8.70
2024-02-18T09:58:37.191Z,8.70
2024-02-18T10:01:05.959Z,8.60
2024-02-18T10:03:34.445Z,8.60
2024-02-18T10:06:02.882Z,8.60
2024-02-18T10:08:31.280Z,8.60
2024-02-18T10:10:59.666Z,8.70
2024-02-18T10:13:29.925Z,8.70
2024-02-18T10:15:58.374Z,8.80
2024-02-18T10:18:26.829Z,8.90
2024-02-18T10:20:56.441Z,9.00
2024-02-18T10:23:24.779Z,9.20
2024-02-18T10:25:53.166Z,9.30
2024-02-18T10:28:21.955Z,9.40
2024-02-18T10:30:51.803Z,9.40
2024-02-18T10:33:20.299Z,9.50
2024-02-18T10:35:48.755Z,9.50
2024-02-18T10:38:17.326Z,9.60
2024-02-18T10:40:48.849Z,9.60
2024-02-18T10:43:18.035Z,9.60
2024-02-18T10:45:46.821Z,9.60
2024-02-18T10:48:16.735Z,9.60
2024-02-18T10:50:47.169Z,9.60
2024-02-18T10:53:26.648Z,9.70
2024-02-18T10:56:01.076Z,9.70
2024-02-18T10:58:33.556Z,9.80
2024-02-18T11:01:02.337Z,9.80
2024-02-18T11:03:37.897Z,9.90
2024-02-18T11:06:06.968Z,9.90
2024-02-18T11:08:36.079Z,10.00
2024-02-18T11:11:04.826Z,10.10
2024-02-18T11:13:33.636Z,10.20
2024-02-18T11:16:02.333Z,10.30
2024-02-18T11:18:32.404Z,10.50
2024-02-18T11:21:01.109Z,10.80
2024-02-18T11:23:33.638Z,11.00
2024-02-18T11:26:02.216Z,11.20
2024-02-18T11:28:33.289Z,11.30
2024-02-18T11:31:01.685Z,11.40
2024-02-18T11:33:34.798Z,11.50
2024-02-18T11:36:14.281Z,11.60
2024-02-18T11:38:47.075Z,11.60
2024-02-18T11:41:20.810Z,11.50
2024-02-18T11:43:55.759Z,11.40
2024-02-18T11:46:26.422Z,11.40
2024-02-18T11:48:56.530Z,11.40
2024-02-18T11:51:27.165Z,11.40
2024-02-18T11:53:57.057Z,11.40
2024-02-18T11:56:25.500Z,11.40
2024-02-18T11:58:55.549Z,11.50
2024-02-18T12:01:26.433Z,11.50
2024-02-18T12:03:58.197Z,11.50
2024-02-18T12:06:27.904Z,11.50
2024-02-18T12:08:57.298Z,11.50
2024-02-18T12:11:26.110Z,11.50
2024-02-18T12:13:54.650Z,11.50
2024-02-18T12:16:23.225Z,11.60
2024-02-18T12:18:52.199Z,11.70
2024-02-18T12:21:22.138Z,11.80
2024-02-18T12:23:50.422Z,12.00
2024-02-18T12:26:19.257Z,12.00
2024-02-18T12:28:50.075Z,12.10
2024-02-18T12:31:18.597Z,12.10
2024-02-18T12:33:47.777Z,12.10
2024-02-18T12:36:16.270Z,12.10
2024-02-18T12:38:46.609Z,12.10
2024-02-18T12:41:15.057Z,12.20
2024-02-18T12:44:26.186Z,12.20
2024-02-18T12:46:34.697Z,12.20
2024-02-18T12:49:05.852Z,12.20
2024-02-18T12:51:37.078Z,12.20
2024-02-18T12:54:06.993Z,12.20
2024-02-18T12:56:35.705Z,12.30
2024-02-18T12:59:04.074Z,12.30
2024-02-18T13:01:32.500Z,12.30
2024-02-18T13:04:01.096Z,12.30
2024-02-18T13:06:29.752Z,12.30
2024-02-18T13:08:58.705Z,12.20
2024-02-18T13:11:29.383Z,12.20
2024-02-18T13:13:59.219Z,12.20
2024-02-18T13:16:26.721Z,12.20
2024-02-18T13:18:55.622Z,12.20
2024-02-18T13:21:26.327Z,12.20
2024-02-18T13:23:56.152Z,12.10
2024-02-18T13:26:24.569Z,12.10
2024-02-18T13:28:55.916Z,12.10
2024-02-18T13:31:24.390Z,12.10
2024-02-18T13:33:52.903Z,12.00
2024-02-18T13:36:22.106Z,12.00
2024-02-18T13:38:50.688Z,12.00
2024-02-18T13:41:19.333Z,12.00
2024-02-18T13:43:47.726Z,12.00
2024-02-18T13:46:17.557Z,12.00
2024-02-18T13:48:46.188Z,11.90
2024-02-18T13:51:14.638Z,11.90
2024-02-18T13:53:43.495Z,11.90
2024-02-18T13:56:14.584Z,11.80
2024-02-18T13:58:44.064Z,11.80
2024-02-18T14:01:13.450Z,11.70
2024-02-18T14:03:45.114Z,11.70
2024-02-18T14:06:13.537Z,11.70
2024-02-18T14:08:42.080Z,11.60
2024-02-18T14:11:10.519Z,11.60
2024-02-18T14:13:38.853Z,11.60
2024-02-18T14:16:08.499Z,11.60
2024-02-18T14:18:36.971Z,11.60
2024-02-18T14:21:07.456Z,11.50
2024-02-18T14:23:35.809Z,11.50
2024-02-18T14:26:05.232Z,11.50
2024-02-18T14:28:33.737Z,11.50
2024-02-18T14:31:02.182Z,11.50
2024-02-18T14:33:31.101Z,11.40
2024-02-18T14:35:59.559Z,11.40
2024-02-18T14:38:31.869Z,11.40
2024-02-18T14:41:00.956Z,11.40
2024-02-18T14:43:29.377Z,11.30
2024-02-18T14:45:57.880Z,11.30
2024-02-18T14:48:27.636Z,11.20
2024-02-18T14:50:56.162Z,11.20
2024-02-18T14:53:24.589Z,11.20
2024-02-18T14:56:00.160Z,11.10
2024-02-18T14:58:28.723Z,11.10
2024-02-18T15:00:57.228Z,11.10
2024-02-18T15:03:25.642Z,11.00
2024-02-18T15:05:53.126Z,11.00
2024-02-18T15:08:22.269Z,11.00
2024-02-18T15:10:50.754Z,10.90
2024-02-18T15:13:23.862Z,10.90
2024-02-18T15:15:52.350Z,10.80
2024-02-18T15:18:21.028Z,10.80
2024-02-18T15:20:49.915Z,10.80
2024-02-18T15:23:19.202Z,10.70
2024-02-18T15:25:51.785Z,10.70
2024-02-18T15:28:21.891Z,10.70
2024-02-18T15:30:50.373Z,10.60
2024-02-18T15:33:18.897Z,10.60
2024-02-18T15:35:49.751Z,10.60
2024-02-18T15:38:19.133Z,10.50
2024-02-18T15:40:47.762Z,10.50
2024-02-18T15:43:16.157Z,10.40
2024-02-18T15:45:45.907Z,10.40
2024-02-18T15:48:16.115Z,10.40
2024-02-18T15:50:44.684Z,10.30
2024-02-18T15:53:13.160Z,10.30
2024-02-18T15:55:49.623Z,10.30
2024-02-18T15:58:25.944Z,10.20
2024-02-18T16:00:55.841Z,10.20
2024-02-18T16:03:24.267Z,10.20
2024-02-18T16:05:52.641Z,10.20
2024-02-18T16:08:21.077Z,10.20
2024-02-18T16:10:49.607Z,10.10
2024-02-18T16:13:18.380Z,10.10
2024-02-18T16:15:46.957Z,10.00
2024-02-18T16:18:17.264Z,10.00
2024-02-18T16:20:46.113Z,10.00
2024-02-18T16:23:14.410Z,9.90
2024-02-18T16:25:42.906Z,9.90
2024-02-18T16:28:11.655Z,9.90
2024-02-18T16:30:40.214Z,9.90
2024-02-18T16:33:08.651Z,9.80
2024-02-18T16:35:38.318Z,9.80
2024-02-18T16:38:06.936Z,9.80
2024-02-18T16:40:35.225Z,9.80
2024-02-18T16:43:03.597Z,9.80
2024-02-18T16:45:31.919Z,9.80
2024-02-18T16:48:00.311Z,9.80
2024-02-18T16:50:28.728Z,9.80
2024-02-18T16:52:58.473Z,9.70
2024-02-18T16:55:26.752Z,9.70
2024-02-18T16:57:55.875Z,9.70
2024-02-18T17:00:24.442Z,9.70
2024-02-18T17:02:52.766Z,9.70
2024-02-18T17:05:21.855Z,9.70
2024-02-18T17:07:50.261Z,9.60
2024-02-18T17:10:20.140Z,9.60
2024-02-18T17:12:48.753Z,9.60
2024-02-18T17:15:17.450Z,9.60
2024-02-18T17:17:45.802Z,9.50
2024-02-18T17:20:13.921Z,9.50
2024-02-18T17:22:42.532Z,9.50
2024-02-18T17:25:11.654Z,9.50
2024-02-18T17:27:41.483Z,9.50
2024-02-18T17:30:11.840Z,9.50
2024-02-18T17:32:40.322Z,9.50
2024-02-18T17:35:09.907Z,9.50
2024-02-18T17:37:38.284Z,9.50
2024-02-18T17:40:09.123Z,9.50
2024-02-18T17:42:37.535Z,9.50
2024-02-18T17:45:13.039Z,9.50
2024-02-18T17:47:45.328Z,9.50
2024-02-18T17:50:14.203Z,9.50
2024-02-18T17:52:42.685Z,9.50
2024-02-18T17:55:11.502Z,9.50
2024-02-18T17:57:41.669Z,9.50
2024-02-18T18:00:14.648Z,9.50
2024-02-18T18:02:43.015Z,9.50
2024-02-18T18:05:11.747Z,9.50
2024-02-18T18:07:40.321Z,9.50
2024-02-18T18:10:10.837Z,9.50
2024-02-18T18:12:39.483Z,9.50
2024-02-18T18:15:09.663Z,9.50
2024-02-18T18:17:39.520Z,9.50
2024-02-18T18:20:09.076Z,9.50
2024-02-18T18:22:37.660Z,9.50
2024-02-18T18:25:08.233Z,9.50
2024-02-18T18:27:36.857Z,9.40
2024-02-18T18:30:06.347Z,9.40
2024-02-18T18:32:35.106Z,9.50
2024-02-18T18:35:05.734Z,9.50
2024-02-18T18:37:34.726Z,9.50
2024-02-18T18:40:04.179Z,9.50
2024-02-18T18:42:33.949Z,9.50
2024-02-18T18:45:02.547Z,9.50
2024-02-18T18:47:31.013Z,9.50
2024-02-18T18:49:59.443Z,9.50
2024-02-18T18:52:29.356Z,9.60
2024-02-18T18:54:57.716Z,9.60
2024-02-18T18:57:26.175Z,9.60
2024-02-18T18:59:54.788Z,9.60
2024-02-18T19:02:23.089Z,9.60
2024-02-18T19:04:51.692Z,9.60
2024-02-18T19:07:26.416Z,9.60
2024-02-18T19:09:56.218Z,9.60
2024-02-18T19:12:24.549Z,9.60
2024-02-18T19:14:52.877Z,9.70
2024-02-18T19:17:21.953Z,9.70
2024-02-18T19:19:50.270Z,9.70
2024-02-18T19:22:19.731Z,9.70
2024-02-18T19:24:51.380Z,9.70
2024-02-18T19:27:21.224Z,9.70
2024-02-18T19:29:49.615Z,9.70
2024-02-18T19:32:18.272Z,9.70
2024-02-18T19:34:47.003Z,9.70
2024-02-18T19:37:15.463Z,9.70
2024-02-18T19:39:44.630Z,9.70
2024-02-18T19:42:13.089Z,9.80
2024-02-18T19:44:43.931Z,9.80
2024-02-18T19:47:12.340Z,9.80
2024-02-18T19:49:40.718Z,9.80
2024-02-18T19:52:09.206Z,9.80
2024-02-18T19:54:37.638Z,9.80
2024-02-18T19:57:06.706Z,9.80
2024-02-18T19:59:35.476Z,9.80
2024-02-18T20:02:07.993Z,9.80
2024-02-18T20:04:36.425Z,9.80
2024-02-18T20:07:06.386Z,9.80
2024-02-18T20:09:36.419Z,9.80
2024-02-18T20:12:05.380Z,9.80
2024-02-18T20:14:33.926Z,9.80
2024-02-18T20:17:02.289Z,9.80
2024-02-18T20:19:32.186Z,9.80
2024-02-18T20:22:00.653Z,9.80
2024-02-18T20:24:29.072Z,9.80
2024-02-18T20:26:57.381Z,9.80
2024-02-18T20:29:25.768Z,9.80
2024-02-18T20:31:54.147Z,9.80
2024-02-18T20:34:25.557Z,9.80
2024-02-18T20:36:55.379Z,9.80
2024-02-18T20:39:23.730Z,9.80
2024-02-18T20:41:54.810Z,9.80
2024-02-18T20:44:23.193Z,9.80
2024-02-18T20:46:51.542Z,9.80
2024-02-18T20:49:19.966Z,9.70
2024-02-18T20:51:49.069Z,9.70
2024-02-18T20:54:20.932Z,9.70
2024-02-18T20:56:49.511Z,9.60
2024-02-18T20:59:17.983Z,9.60
2024-02-18T21:01:50.889Z,9.60
2024-02-18T21:04:19.560Z,9.60
2024-02-18T21:06:48.633Z,9.50
2024-02-18T21:09:18.450Z,9.50
2024-02-18T21:11:46.915Z,9.50
2024-02-18T21:14:18.794Z,9.50
2024-02-18T21:16:48.444Z,9.40
2024-02-18T21:19:18.859Z,9.40
2024-02-18T21:21:47.518Z,9.40
2024-02-18T21:24:15.896Z,9.40
2024-02-18T21:26:45.580Z,9.40
2024-02-18T21:29:13.978Z,9.40
2024-02-18T21:31:42.312Z,9.40
2024-02-18T21:34:12.711Z,9.40
2024-02-18T21:36:43.693Z,9.40
2024-02-18T21:39:12.164Z,9.40
2024-02-18T21:41:47.297Z,9.40
2024-02-18T21:44:16.940Z,9.30
2024-02-18T21:46:47.652Z,9.30
2024-02-18T21:49:16.588Z,9.30
2024-02-18T21:51:45.233Z,9.30
2024-02-18T21:54:13.735Z,9.30
2024-02-18T21:56:42.200Z,9.30
2024-02-18T22:01:54.551Z,9.30
2024-02-18T22:04:23.302Z,9.20
2024-02-18T22:07:04.780Z,9.20
2024-02-18T22:09:40.278Z,9.20
2024-02-18T22:12:09.362Z,9.20
2024-02-18T22:14:39.048Z,9.20
2024-02-18T22:17:08.338Z,9.20
2024-02-18T22:19:36.809Z,9.20
2024-02-18T22:22:05.786Z,9.20
2024-02-18T22:24:34.315Z,9.20
2024-02-18T22:27:02.776Z,9.20
2024-02-18T22:29:31.418Z,9.10
2024-02-18T22:32:01.264Z,9.20
2024-02-18T22:34:29.696Z,9.10
2024-02-18T22:36:58.230Z,9.10
2024-02-18T22:39:26.679Z,9.10
2024-02-18T22:41:55.189Z,9.10
2024-02-18T22:44:23.578Z,9.20
2024-02-18T22:46:52.048Z,9.20
2024-02-18T22:49:21.855Z,9.20
2024-02-18T22:51:52.739Z,9.20
2024-02-18T22:54:21.200Z,9.20
2024-02-18T22:56:49.733Z,9.20
2024-02-18T22:59:18.205Z,9.20
2024-02-18T23:01:46.652Z,9.20
2024-02-18T23:04:15.070Z,9.20
2024-02-18T23:06:45.276Z,9.20
2024-02-18T23:09:13.793Z,9.20
2024-02-18T23:11:42.242Z,9.20
2024-02-18T23:14:10.634Z,9.20
2024-02-18T23:16:38.963Z,9.20
2024-02-18T23:19:08.758Z,9.20
2024-02-18T23:21:37.085Z,9.20
2024-02-18T23:24:07.680Z,9.20
2024-02-18T23:26:36.054Z,9.20
2024-02-18T23:29:04.432Z,9.20
2024-02-18T23:31:32.962Z,9.20
2024-02-18T23:34:01.483Z,9.20
2024-02-18T23:36:29.878Z,9.20
2024-02-18T23:38:58.732Z,9.20
2024-02-18T23:41:28.514Z,9.20
2024-02-18T23:43:57.059Z,9.20
2024-02-18T23:46:26.223Z,9.20
2024-02-18T23:48:55.053Z,9.20
2024-02-18T23:51:23.506Z,9.20
2024-02-18T23:53:52.962Z,9.20
2024-02-18T23:56:21.427Z,9.10
2024-02-18T23:58:51.258Z,9.10
